sensor_id;sensor_type;location;lat;lon;timestamp;P1;durP1;ratioP1;P2;durP2;ratioP2
417;SDS011;49;48.530;9.200;2023-01-23T00:00:57;49.13;;;31.00;;
417;SDS011;49;48.530;9.200;2023-01-23T00:03:26;45.90;;;28.93;;
417;SDS011;49;48.530;9.200;2023-01-23T00:05:56;50.40;;;29.07;;
417;SDS011;49;48.530;9.200;2023-01-23T00:08:23;46.40;;;28.73;;
417;SDS011;49;48.530;9.200;2023-01-23T00:10:50;47.20;;;29.37;;
417;SDS011;49;48.530;9.200;2023-01-23T00:13:17;42.33;;;27.03;;
417;SDS011;49;48.530;9.200;2023-01-23T00:15:44;42.23;;;26.60;;
417;SDS011;49;48.530;9.200;2023-01-23T00:18:12;43.87;;;27.90;;
417;SDS011;49;48.530;9.200;2023-01-23T00:20:40;44.30;;;28.87;;
417;SDS011;49;48.530;9.200;2023-01-23T00:23:07;43.27;;;27.37;;
417;SDS011;49;48.530;9.200;2023-01-23T00:25:35;44.10;;;28.77;;
417;SDS011;49;48.530;9.200;2023-01-23T00:28:02;40.77;;;26.73;;
417;SDS011;49;48.530;9.200;2023-01-23T00:30:30;40.17;;;26.10;;
417;SDS011;49;48.530;9.200;2023-01-23T00:32:57;44.80;;;27.57;;
417;SDS011;49;48.530;9.200;2023-01-23T00:35:24;34.97;;;24.70;;
417;SDS011;49;48.530;9.200;2023-01-23T00:37:52;43.00;;;27.60;;
417;SDS011;49;48.530;9.200;2023-01-23T00:40:19;46.50;;;27.57;;
417;SDS011;49;48.530;9.200;2023-01-23T00:42:45;42.93;;;26.80;;
417;SDS011;49;48.530;9.200;2023-01-23T00:45:12;39.00;;;25.63;;
417;SDS011;49;48.530;9.200;2023-01-23T00:47:39;42.33;;;27.57;;
417;SDS011;49;48.530;9.200;2023-01-23T00:50:08;45.20;;;28.27;;
417;SDS011;49;48.530;9.200;2023-01-23T00:52:35;42.23;;;26.50;;
417;SDS011;49;48.530;9.200;2023-01-23T00:55:04;42.20;;;26.43;;
417;SDS011;49;48.530;9.200;2023-01-23T00:57:32;42.70;;;27.07;;
417;SDS011;49;48.530;9.200;2023-01-23T00:59:59;43.93;;;27.13;;
417;SDS011;49;48.530;9.200;2023-01-23T01:02:26;42.97;;;26.80;;
417;SDS011;49;48.530;9.200;2023-01-23T01:04:53;41.47;;;27.03;;
417;SDS011;49;48.530;9.200;2023-01-23T01:07:20;42.87;;;27.70;;
417;SDS011;49;48.530;9.200;2023-01-23T01:09:47;40.50;;;27.03;;
417;SDS011;49;48.530;9.200;2023-01-23T01:12:15;47.73;;;29.80;;
417;SDS011;49;48.530;9.200;2023-01-23T01:14:43;41.57;;;27.73;;
417;SDS011;49;48.530;9.200;2023-01-23T01:17:10;45.00;;;29.40;;
417;SDS011;49;48.530;9.200;2023-01-23T01:19:37;41.10;;;26.57;;
417;SDS011;49;48.530;9.200;2023-01-23T01:22:04;44.50;;;28.53;;
417;SDS011;49;48.530;9.200;2023-01-23T01:24:30;48.93;;;30.57;;
417;SDS011;49;48.530;9.200;2023-01-23T01:26:57;42.97;;;28.30;;
417;SDS011;49;48.530;9.200;2023-01-23T01:29:26;47.90;;;29.37;;
417;SDS011;49;48.530;9.200;2023-01-23T01:31:52;42.80;;;26.17;;
417;SDS011;49;48.530;9.200;2023-01-23T01:34:19;44.73;;;28.93;;
417;SDS011;49;48.530;9.200;2023-01-23T01:36:46;46.83;;;29.80;;
417;SDS011;49;48.530;9.200;2023-01-23T01:39:13;42.07;;;26.50;;
417;SDS011;49;48.530;9.200;2023-01-23T01:41:40;40.60;;;26.70;;
417;SDS011;49;48.530;9.200;2023-01-23T01:44:08;37.90;;;24.90;;
417;SDS011;49;48.530;9.200;2023-01-23T01:46:40;44.13;;;27.50;;
417;SDS011;49;48.530;9.200;2023-01-23T01:49:08;42.23;;;26.97;;
417;SDS011;49;48.530;9.200;2023-01-23T01:51:39;40.87;;;26.40;;
417;SDS011;49;48.530;9.200;2023-01-23T01:54:11;40.90;;;26.53;;
417;SDS011;49;48.530;9.200;2023-01-23T01:56:46;42.40;;;26.07;;
417;SDS011;49;48.530;9.200;2023-01-23T01:59:16;43.87;;;28.57;;
417;SDS011;49;48.530;9.200;2023-01-23T02:01:46;41.67;;;26.97;;
417;SDS011;49;48.530;9.200;2023-01-23T02:04:18;40.50;;;26.57;;
417;SDS011;49;48.530;9.200;2023-01-23T02:06:46;50.93;;;27.70;;
417;SDS011;49;48.530;9.200;2023-01-23T02:09:15;45.50;;;29.20;;
417;SDS011;49;48.530;9.200;2023-01-23T02:11:46;39.70;;;26.50;;
417;SDS011;49;48.530;9.200;2023-01-23T02:14:15;45.37;;;28.30;;
417;SDS011;49;48.530;9.200;2023-01-23T02:16:42;43.63;;;27.90;;
417;SDS011;49;48.530;9.200;2023-01-23T02:19:18;49.50;;;29.27;;
417;SDS011;49;48.530;9.200;2023-01-23T02:21:56;45.33;;;28.53;;
417;SDS011;49;48.530;9.200;2023-01-23T02:24:30;47.23;;;28.53;;
417;SDS011;49;48.530;9.200;2023-01-23T02:27:03;44.87;;;26.77;;
417;SDS011;49;48.530;9.200;2023-01-23T02:29:39;44.00;;;28.10;;
417;SDS011;49;48.530;9.200;2023-01-23T02:32:07;45.90;;;28.30;;
417;SDS011;49;48.530;9.200;2023-01-23T02:34:34;46.60;;;29.00;;
417;SDS011;49;48.530;9.200;2023-01-23T02:37:01;44.40;;;27.70;;
417;SDS011;49;48.530;9.200;2023-01-23T02:39:29;43.17;;;27.77;;
417;SDS011;49;48.530;9.200;2023-01-23T02:41:57;45.40;;;27.60;;
417;SDS011;49;48.530;9.200;2023-01-23T02:44:27;47.60;;;28.13;;
417;SDS011;49;48.530;9.200;2023-01-23T02:46:57;42.87;;;26.87;;
417;SDS011;49;48.530;9.200;2023-01-23T02:49:25;44.50;;;27.90;;
417;SDS011;49;48.530;9.200;2023-01-23T02:51:52;40.57;;;25.10;;
417;SDS011;49;48.530;9.200;2023-01-23T02:54:20;42.70;;;26.30;;
417;SDS011;49;48.530;9.200;2023-01-23T02:56:47;41.30;;;25.20;;
417;SDS011;49;48.530;9.200;2023-01-23T02:59:15;43.37;;;27.77;;
417;SDS011;49;48.530;9.200;2023-01-23T03:02:01;40.90;;;26.30;;
417;SDS011;49;48.530;9.200;2023-01-23T03:04:28;43.93;;;26.87;;
417;SDS011;49;48.530;9.200;2023-01-23T03:06:55;42.87;;;26.13;;
417;SDS011;49;48.530;9.200;2023-01-23T03:09:23;44.67;;;28.33;;
417;SDS011;49;48.530;9.200;2023-01-23T03:11:50;45.00;;;26.50;;
417;SDS011;49;48.530;9.200;2023-01-23T03:14:18;43.73;;;27.03;;
417;SDS011;49;48.530;9.200;2023-01-23T03:16:47;37.93;;;24.30;;
417;SDS011;49;48.530;9.200;2023-01-23T03:19:18;39.93;;;27.47;;
417;SDS011;49;48.530;9.200;2023-01-23T03:21:47;42.23;;;28.00;;
417;SDS011;49;48.530;9.200;2023-01-23T03:24:14;41.10;;;25.27;;
417;SDS011;49;48.530;9.200;2023-01-23T03:26:42;38.57;;;25.43;;
417;SDS011;49;48.530;9.200;2023-01-23T03:29:12;39.90;;;25.70;;
417;SDS011;49;48.530;9.200;2023-01-23T03:31:58;42.07;;;26.83;;
417;SDS011;49;48.530;9.200;2023-01-23T03:34:26;44.80;;;27.00;;
417;SDS011;49;48.530;9.200;2023-01-23T03:36:53;44.53;;;27.50;;
417;SDS011;49;48.530;9.200;2023-01-23T03:39:20;43.67;;;26.90;;
417;SDS011;49;48.530;9.200;2023-01-23T03:42:04;49.80;;;30.37;;
417;SDS011;49;48.530;9.200;2023-01-23T03:44:31;49.80;;;27.67;;
417;SDS011;49;48.530;9.200;2023-01-23T03:46:58;47.37;;;27.40;;
417;SDS011;49;48.530;9.200;2023-01-23T03:49:27;42.13;;;26.67;;
417;SDS011;49;48.530;9.200;2023-01-23T03:51:54;47.17;;;27.03;;
417;SDS011;49;48.530;9.200;2023-01-23T03:54:20;42.80;;;26.00;;
417;SDS011;49;48.530;9.200;2023-01-23T03:56:47;55.33;;;30.87;;
417;SDS011;49;48.530;9.200;2023-01-23T03:59:14;44.80;;;26.70;;
417;SDS011;49;48.530;9.200;2023-01-23T04:01:41;40.90;;;25.67;;
417;SDS011;49;48.530;9.200;2023-01-23T04:04:08;39.73;;;25.57;;
417;SDS011;49;48.530;9.200;2023-01-23T04:06:36;39.10;;;24.17;;
417;SDS011;49;48.530;9.200;2023-01-23T04:09:03;39.73;;;24.57;;
417;SDS011;49;48.530;9.200;2023-01-23T04:11:30;38.23;;;25.10;;
417;SDS011;49;48.530;9.200;2023-01-23T04:13:57;41.80;;;25.23;;
417;SDS011;49;48.530;9.200;2023-01-23T04:16:24;39.90;;;24.70;;
417;SDS011;49;48.530;9.200;2023-01-23T04:18:52;38.13;;;23.47;;
417;SDS011;49;48.530;9.200;2023-01-23T04:21:20;42.40;;;25.10;;
417;SDS011;49;48.530;9.200;2023-01-23T04:23:48;38.63;;;22.97;;
417;SDS011;49;48.530;9.200;2023-01-23T04:26:15;46.37;;;26.40;;
417;SDS011;49;48.530;9.200;2023-01-23T04:28:42;42.53;;;25.27;;
417;SDS011;49;48.530;9.200;2023-01-23T04:31:09;38.87;;;24.90;;
417;SDS011;49;48.530;9.200;2023-01-23T04:33:36;40.63;;;24.70;;
417;SDS011;49;48.530;9.200;2023-01-23T04:36:04;42.03;;;25.37;;
417;SDS011;49;48.530;9.200;2023-01-23T04:38:32;39.63;;;23.37;;
417;SDS011;49;48.530;9.200;2023-01-23T04:41:01;40.43;;;25.17;;
417;SDS011;49;48.530;9.200;2023-01-23T04:43:28;46.97;;;27.40;;
417;SDS011;49;48.530;9.200;2023-01-23T04:45:55;41.73;;;25.47;;
417;SDS011;49;48.530;9.200;2023-01-23T04:48:22;41.10;;;26.97;;
417;SDS011;49;48.530;9.200;2023-01-23T04:50:50;40.60;;;26.17;;
417;SDS011;49;48.530;9.200;2023-01-23T04:53:17;41.10;;;26.30;;
417;SDS011;49;48.530;9.200;2023-01-23T04:55:45;41.53;;;24.57;;
417;SDS011;49;48.530;9.200;2023-01-23T04:58:15;39.00;;;24.60;;
417;SDS011;49;48.530;9.200;2023-01-23T05:00:43;42.87;;;26.37;;
417;SDS011;49;48.530;9.200;2023-01-23T05:03:10;41.23;;;25.40;;
417;SDS011;49;48.530;9.200;2023-01-23T05:05:37;41.90;;;25.27;;
417;SDS011;49;48.530;9.200;2023-01-23T05:08:04;45.17;;;27.47;;
417;SDS011;49;48.530;9.200;2023-01-23T05:10:31;42.03;;;26.37;;
417;SDS011;49;48.530;9.200;2023-01-23T05:12:58;37.30;;;24.10;;
417;SDS011;49;48.530;9.200;2023-01-23T05:15:26;43.10;;;26.37;;
417;SDS011;49;48.530;9.200;2023-01-23T05:17:53;43.83;;;24.00;;
417;SDS011;49;48.530;9.200;2023-01-23T05:20:20;38.17;;;23.90;;
417;SDS011;49;48.530;9.200;2023-01-23T05:22:47;42.30;;;25.63;;
417;SDS011;49;48.530;9.200;2023-01-23T05:25:18;43.93;;;26.07;;
417;SDS011;49;48.530;9.200;2023-01-23T05:27:46;40.53;;;25.33;;
417;SDS011;49;48.530;9.200;2023-01-23T05:30:13;42.70;;;26.80;;
417;SDS011;49;48.530;9.200;2023-01-23T05:32:43;41.00;;;24.97;;
417;SDS011;49;48.530;9.200;2023-01-23T05:35:16;42.13;;;27.10;;
417;SDS011;49;48.530;9.200;2023-01-23T05:37:46;40.73;;;25.23;;
417;SDS011;49;48.530;9.200;2023-01-23T05:40:13;43.60;;;26.77;;
417;SDS011;49;48.530;9.200;2023-01-23T05:42:40;44.00;;;25.47;;
417;SDS011;49;48.530;9.200;2023-01-23T05:45:07;51.73;;;26.80;;
417;SDS011;49;48.530;9.200;2023-01-23T05:47:35;39.33;;;24.77;;
417;SDS011;49;48.530;9.200;2023-01-23T05:50:06;42.60;;;26.73;;
417;SDS011;49;48.530;9.200;2023-01-23T05:52:34;42.43;;;25.00;;
417;SDS011;49;48.530;9.200;2023-01-23T05:55:01;44.40;;;26.10;;
417;SDS011;49;48.530;9.200;2023-01-23T05:57:28;37.83;;;24.30;;
417;SDS011;49;48.530;9.200;2023-01-23T05:59:55;42.87;;;25.30;;
417;SDS011;49;48.530;9.200;2023-01-23T06:02:22;43.03;;;24.53;;
417;SDS011;49;48.530;9.200;2023-01-23T06:04:49;39.97;;;24.43;;
417;SDS011;49;48.530;9.200;2023-01-23T06:07:17;45.33;;;26.20;;
417;SDS011;49;48.530;9.200;2023-01-23T06:09:45;42.70;;;25.83;;
417;SDS011;49;48.530;9.200;2023-01-23T06:12:12;42.13;;;24.50;;
417;SDS011;49;48.530;9.200;2023-01-23T06:14:39;44.43;;;26.43;;
417;SDS011;49;48.530;9.200;2023-01-23T06:17:06;42.20;;;26.53;;
417;SDS011;49;48.530;9.200;2023-01-23T06:19:33;50.00;;;27.03;;
417;SDS011;49;48.530;9.200;2023-01-23T06:22:00;45.17;;;25.57;;
417;SDS011;49;48.530;9.200;2023-01-23T06:24:28;43.50;;;25.83;;
417;SDS011;49;48.530;9.200;2023-01-23T06:26:55;49.37;;;26.03;;
417;SDS011;49;48.530;9.200;2023-01-23T06:29:22;46.30;;;26.20;;
417;SDS011;49;48.530;9.200;2023-01-23T06:31:49;42.20;;;24.43;;
417;SDS011;49;48.530;9.200;2023-01-23T06:34:16;44.50;;;24.33;;
417;SDS011;49;48.530;9.200;2023-01-23T06:36:43;42.27;;;26.00;;
417;SDS011;49;48.530;9.200;2023-01-23T06:39:15;42.33;;;25.60;;
417;SDS011;49;48.530;9.200;2023-01-23T06:41:43;45.50;;;25.20;;
417;SDS011;49;48.530;9.200;2023-01-23T06:44:11;45.47;;;25.87;;
417;SDS011;49;48.530;9.200;2023-01-23T06:46:38;44.13;;;26.07;;
417;SDS011;49;48.530;9.200;2023-01-23T06:49:04;45.13;;;26.40;;
417;SDS011;49;48.530;9.200;2023-01-23T06:51:32;39.43;;;23.83;;
417;SDS011;49;48.530;9.200;2023-01-23T06:54:08;46.53;;;25.50;;
417;SDS011;49;48.530;9.200;2023-01-23T06:56:35;46.67;;;25.00;;
417;SDS011;49;48.530;9.200;2023-01-23T06:59:03;47.40;;;27.20;;
417;SDS011;49;48.530;9.200;2023-01-23T07:01:31;47.47;;;25.87;;
417;SDS011;49;48.530;9.200;2023-01-23T07:03:58;44.47;;;26.20;;
417;SDS011;49;48.530;9.200;2023-01-23T07:06:25;51.73;;;30.27;;
417;SDS011;49;48.530;9.200;2023-01-23T07:08:51;50.43;;;26.40;;
417;SDS011;49;48.530;9.200;2023-01-23T07:11:18;52.43;;;31.67;;
417;SDS011;49;48.530;9.200;2023-01-23T07:13:45;48.43;;;25.40;;
417;SDS011;49;48.530;9.200;2023-01-23T07:16:14;48.60;;;28.30;;
417;SDS011;49;48.530;9.200;2023-01-23T07:18:41;51.60;;;27.87;;
417;SDS011;49;48.530;9.200;2023-01-23T07:21:07;50.63;;;28.07;;
417;SDS011;49;48.530;9.200;2023-01-23T07:23:34;51.60;;;27.23;;
417;SDS011;49;48.530;9.200;2023-01-23T07:26:02;49.97;;;27.10;;
417;SDS011;49;48.530;9.200;2023-01-23T07:28:33;55.30;;;28.63;;
417;SDS011;49;48.530;9.200;2023-01-23T07:31:01;48.50;;;26.70;;
417;SDS011;49;48.530;9.200;2023-01-23T07:33:30;60.67;;;32.90;;
417;SDS011;49;48.530;9.200;2023-01-23T07:35:57;70.43;;;38.03;;
417;SDS011;49;48.530;9.200;2023-01-23T07:38:24;51.40;;;28.87;;
417;SDS011;49;48.530;9.200;2023-01-23T07:40:52;54.90;;;30.20;;
417;SDS011;49;48.530;9.200;2023-01-23T07:43:22;59.73;;;31.97;;
417;SDS011;49;48.530;9.200;2023-01-23T07:45:50;75.33;;;40.93;;
417;SDS011;49;48.530;9.200;2023-01-23T07:48:17;55.70;;;32.33;;
417;SDS011;49;48.530;9.200;2023-01-23T07:50:45;63.17;;;36.17;;
417;SDS011;49;48.530;9.200;2023-01-23T07:53:12;51.53;;;31.07;;
417;SDS011;49;48.530;9.200;2023-01-23T07:55:39;53.53;;;29.33;;
417;SDS011;49;48.530;9.200;2023-01-23T07:58:06;56.97;;;33.80;;
417;SDS011;49;48.530;9.200;2023-01-23T08:00:33;53.50;;;29.53;;
417;SDS011;49;48.530;9.200;2023-01-23T08:03:00;51.50;;;28.70;;
417;SDS011;49;48.530;9.200;2023-01-23T08:05:26;61.03;;;33.80;;
417;SDS011;49;48.530;9.200;2023-01-23T08:07:55;57.43;;;31.07;;
417;SDS011;49;48.530;9.200;2023-01-23T08:10:22;54.10;;;28.70;;
417;SDS011;49;48.530;9.200;2023-01-23T08:12:49;51.40;;;27.20;;
417;SDS011;49;48.530;9.200;2023-01-23T08:15:16;51.50;;;28.77;;
417;SDS011;49;48.530;9.200;2023-01-23T08:17:43;50.00;;;27.23;;
417;SDS011;49;48.530;9.200;2023-01-23T08:20:10;50.27;;;30.00;;
417;SDS011;49;48.530;9.200;2023-01-23T08:22:38;42.97;;;24.50;;
417;SDS011;49;48.530;9.200;2023-01-23T08:25:07;44.80;;;24.63;;
417;SDS011;49;48.530;9.200;2023-01-23T08:27:35;49.83;;;26.93;;
417;SDS011;49;48.530;9.200;2023-01-23T08:30:02;39.17;;;23.90;;
417;SDS011;49;48.530;9.200;2023-01-23T08:32:30;44.83;;;25.20;;
417;SDS011;49;48.530;9.200;2023-01-23T08:34:59;48.97;;;25.53;;
417;SDS011;49;48.530;9.200;2023-01-23T08:37:26;38.03;;;23.33;;
417;SDS011;49;48.530;9.200;2023-01-23T08:39:53;43.67;;;24.57;;
417;SDS011;49;48.530;9.200;2023-01-23T08:42:23;44.63;;;23.40;;
417;SDS011;49;48.530;9.200;2023-01-23T08:44:49;40.37;;;22.37;;
417;SDS011;49;48.530;9.200;2023-01-23T08:47:16;41.30;;;23.57;;
417;SDS011;49;48.530;9.200;2023-01-23T08:49:43;39.90;;;24.00;;
417;SDS011;49;48.530;9.200;2023-01-23T08:52:10;43.57;;;25.30;;
417;SDS011;49;48.530;9.200;2023-01-23T08:54:38;51.83;;;28.70;;
417;SDS011;49;48.530;9.200;2023-01-23T08:57:11;51.83;;;25.23;;
417;SDS011;49;48.530;9.200;2023-01-23T08:59:39;43.30;;;24.60;;
417;SDS011;49;48.530;9.200;2023-01-23T09:02:09;46.97;;;25.43;;
417;SDS011;49;48.530;9.200;2023-01-23T09:04:37;45.53;;;23.70;;
417;SDS011;49;48.530;9.200;2023-01-23T09:07:05;51.20;;;26.57;;
417;SDS011;49;48.530;9.200;2023-01-23T09:09:32;65.40;;;31.50;;
417;SDS011;49;48.530;9.200;2023-01-23T09:11:59;81.50;;;38.10;;
417;SDS011;49;48.530;9.200;2023-01-23T09:14:26;79.33;;;39.33;;
417;SDS011;49;48.530;9.200;2023-01-23T09:16:54;54.83;;;33.70;;
417;SDS011;49;48.530;9.200;2023-01-23T09:19:22;47.40;;;25.10;;
417;SDS011;49;48.530;9.200;2023-01-23T09:21:51;45.70;;;25.90;;
417;SDS011;49;48.530;9.200;2023-01-23T09:24:18;43.70;;;25.13;;
417;SDS011;49;48.530;9.200;2023-01-23T09:26:45;37.90;;;22.27;;
417;SDS011;49;48.530;9.200;2023-01-23T09:29:13;42.60;;;23.77;;
417;SDS011;49;48.530;9.200;2023-01-23T09:31:40;41.70;;;24.13;;
417;SDS011;49;48.530;9.200;2023-01-23T09:34:09;58.00;;;32.90;;
417;SDS011;49;48.530;9.200;2023-01-23T09:36:36;46.67;;;25.93;;
417;SDS011;49;48.530;9.200;2023-01-23T09:39:03;38.63;;;23.20;;
417;SDS011;49;48.530;9.200;2023-01-23T09:41:30;41.50;;;24.67;;
417;SDS011;49;48.530;9.200;2023-01-23T09:43:58;36.60;;;21.87;;
417;SDS011;49;48.530;9.200;2023-01-23T09:46:31;38.90;;;23.40;;
417;SDS011;49;48.530;9.200;2023-01-23T09:49:04;36.43;;;22.10;;
417;SDS011;49;48.530;9.200;2023-01-23T09:51:43;41.23;;;23.53;;
417;SDS011;49;48.530;9.200;2023-01-23T09:54:22;38.57;;;24.00;;
417;SDS011;49;48.530;9.200;2023-01-23T09:56:58;47.73;;;26.80;;
417;SDS011;49;48.530;9.200;2023-01-23T09:59:32;50.63;;;26.43;;
417;SDS011;49;48.530;9.200;2023-01-23T10:02:02;45.87;;;27.13;;
417;SDS011;49;48.530;9.200;2023-01-23T10:04:37;38.40;;;22.13;;
417;SDS011;49;48.530;9.200;2023-01-23T10:07:16;37.30;;;22.10;;
417;SDS011;49;48.530;9.200;2023-01-23T10:10:02;37.23;;;22.10;;
417;SDS011;49;48.530;9.200;2023-01-23T10:12:42;38.27;;;24.20;;
417;SDS011;49;48.530;9.200;2023-01-23T10:15:18;37.20;;;21.43;;
417;SDS011;49;48.530;9.200;2023-01-23T10:17:56;36.70;;;21.37;;
417;SDS011;49;48.530;9.200;2023-01-23T10:20:42;40.30;;;22.67;;
417;SDS011;49;48.530;9.200;2023-01-23T10:23:38;40.53;;;23.63;;
417;SDS011;49;48.530;9.200;2023-01-23T10:26:17;33.80;;;19.20;;
417;SDS011;49;48.530;9.200;2023-01-23T10:28:47;31.23;;;18.23;;
417;SDS011;49;48.530;9.200;2023-01-23T10:31:22;51.13;;;30.33;;
417;SDS011;49;48.530;9.200;2023-01-23T10:33:58;34.00;;;17.67;;
417;SDS011;49;48.530;9.200;2023-01-23T10:36:34;30.63;;;18.03;;
417;SDS011;49;48.530;9.200;2023-01-23T10:39:05;31.90;;;19.63;;
417;SDS011;49;48.530;9.200;2023-01-23T10:41:41;33.20;;;19.27;;
417;SDS011;49;48.530;9.200;2023-01-23T10:44:10;29.93;;;18.07;;
417;SDS011;49;48.530;9.200;2023-01-23T10:46:44;31.73;;;20.23;;
417;SDS011;49;48.530;9.200;2023-01-23T10:49:25;31.47;;;18.10;;
417;SDS011;49;48.530;9.200;2023-01-23T10:51:55;26.33;;;16.03;;
417;SDS011;49;48.530;9.200;2023-01-23T10:54:24;23.83;;;15.80;;
417;SDS011;49;48.530;9.200;2023-01-23T10:56:53;25.93;;;15.73;;
417;SDS011;49;48.530;9.200;2023-01-23T10:59:27;26.90;;;16.83;;
417;SDS011;49;48.530;9.200;2023-01-23T11:01:58;25.93;;;15.80;;
417;SDS011;49;48.530;9.200;2023-01-23T11:04:28;28.93;;;16.23;;
417;SDS011;49;48.530;9.200;2023-01-23T11:07:01;25.20;;;16.90;;
417;SDS011;49;48.530;9.200;2023-01-23T11:09:31;26.23;;;16.03;;
417;SDS011;49;48.530;9.200;2023-01-23T11:12:13;29.47;;;15.23;;
417;SDS011;49;48.530;9.200;2023-01-23T11:14:41;28.17;;;17.27;;
417;SDS011;49;48.530;9.200;2023-01-23T11:17:13;27.33;;;16.50;;
417;SDS011;49;48.530;9.200;2023-01-23T11:19:43;27.67;;;16.37;;
417;SDS011;49;48.530;9.200;2023-01-23T11:22:25;30.90;;;19.17;;
417;SDS011;49;48.530;9.200;2023-01-23T11:24:55;30.90;;;16.87;;
417;SDS011;49;48.530;9.200;2023-01-23T11:27:23;29.57;;;17.40;;
417;SDS011;49;48.530;9.200;2023-01-23T11:32:53;27.83;;;16.37;;
417;SDS011;49;48.530;9.200;2023-01-23T11:35:24;30.30;;;17.87;;
417;SDS011;49;48.530;9.200;2023-01-23T11:38:12;31.03;;;17.67;;
417;SDS011;49;48.530;9.200;2023-01-23T11:40:42;37.03;;;20.63;;
417;SDS011;49;48.530;9.200;2023-01-23T11:43:12;33.13;;;19.83;;
417;SDS011;49;48.530;9.200;2023-01-23T11:45:42;33.90;;;18.97;;
417;SDS011;49;48.530;9.200;2023-01-23T11:48:23;28.20;;;17.33;;
417;SDS011;49;48.530;9.200;2023-01-23T11:50:59;29.73;;;17.77;;
417;SDS011;49;48.530;9.200;2023-01-23T11:53:39;34.33;;;20.30;;
417;SDS011;49;48.530;9.200;2023-01-23T11:56:25;37.50;;;19.43;;
417;SDS011;49;48.530;9.200;2023-01-23T11:59:25;39.83;;;21.43;;
417;SDS011;49;48.530;9.200;2023-01-23T12:02:30;29.40;;;17.47;;
417;SDS011;49;48.530;9.200;2023-01-23T12:05:39;32.50;;;19.73;;
417;SDS011;49;48.530;9.200;2023-01-23T12:08:18;34.57;;;19.57;;
417;SDS011;49;48.530;9.200;2023-01-23T12:10:55;33.20;;;17.43;;
417;SDS011;49;48.530;9.200;2023-01-23T12:13:42;32.70;;;18.27;;
417;SDS011;49;48.530;9.200;2023-01-23T12:16:26;26.00;;;16.30;;
417;SDS011;49;48.530;9.200;2023-01-23T12:19:09;29.00;;;17.90;;
417;SDS011;49;48.530;9.200;2023-01-23T12:21:44;28.90;;;17.53;;
417;SDS011;49;48.530;9.200;2023-01-23T12:24:24;29.73;;;17.40;;
417;SDS011;49;48.530;9.200;2023-01-23T12:27:09;31.77;;;16.80;;
417;SDS011;49;48.530;9.200;2023-01-23T12:29:48;33.07;;;18.73;;
417;SDS011;49;48.530;9.200;2023-01-23T12:32:34;47.23;;;22.40;;
417;SDS011;49;48.530;9.200;2023-01-23T12:35:25;34.10;;;19.10;;
417;SDS011;49;48.530;9.200;2023-01-23T12:38:12;37.80;;;19.27;;
417;SDS011;49;48.530;9.200;2023-01-23T12:40:49;32.90;;;18.30;;
417;SDS011;49;48.530;9.200;2023-01-23T12:43:25;27.03;;;16.70;;
417;SDS011;49;48.530;9.200;2023-01-23T12:46:02;29.57;;;17.03;;
417;SDS011;49;48.530;9.200;2023-01-23T12:48:35;27.90;;;16.83;;
417;SDS011;49;48.530;9.200;2023-01-23T12:51:10;27.77;;;17.47;;
417;SDS011;49;48.530;9.200;2023-01-23T12:53:43;32.03;;;18.17;;
417;SDS011;49;48.530;9.200;2023-01-23T12:56:16;30.53;;;18.10;;
417;SDS011;49;48.530;9.200;2023-01-23T12:58:50;33.10;;;18.23;;
417;SDS011;49;48.530;9.200;2023-01-23T13:01:27;32.80;;;18.60;;
417;SDS011;49;48.530;9.200;2023-01-23T13:04:10;34.20;;;18.83;;
417;SDS011;49;48.530;9.200;2023-01-23T13:06:48;31.60;;;17.40;;
417;SDS011;49;48.530;9.200;2023-01-23T13:09:25;43.70;;;21.10;;
417;SDS011;49;48.530;9.200;2023-01-23T13:12:03;39.43;;;17.97;;
417;SDS011;49;48.530;9.200;2023-01-23T13:14:44;34.13;;;17.90;;
417;SDS011;49;48.530;9.200;2023-01-23T13:17:30;32.70;;;17.80;;
417;SDS011;49;48.530;9.200;2023-01-23T13:20:17;30.27;;;18.03;;
417;SDS011;49;48.530;9.200;2023-01-23T13:23:19;32.30;;;18.60;;
417;SDS011;49;48.530;9.200;2023-01-23T13:25:48;30.87;;;18.43;;
417;SDS011;49;48.530;9.200;2023-01-23T13:28:25;32.20;;;17.93;;
417;SDS011;49;48.530;9.200;2023-01-23T13:31:01;32.67;;;17.83;;
417;SDS011;49;48.530;9.200;2023-01-23T13:36:22;32.13;;;18.47;;
417;SDS011;49;48.530;9.200;2023-01-23T13:39:04;30.67;;;18.37;;
417;SDS011;49;48.530;9.200;2023-01-23T13:42:31;32.23;;;18.60;;
417;SDS011;49;48.530;9.200;2023-01-23T13:45:13;32.30;;;18.37;;
417;SDS011;49;48.530;9.200;2023-01-23T13:51:26;32.53;;;19.13;;
417;SDS011;49;48.530;9.200;2023-01-23T13:53:53;52.83;;;25.17;;
417;SDS011;49;48.530;9.200;2023-01-23T13:56:39;40.70;;;22.33;;
417;SDS011;49;48.530;9.200;2023-01-23T13:59:10;30.27;;;18.33;;
417;SDS011;49;48.530;9.200;2023-01-23T14:01:46;27.50;;;16.93;;
417;SDS011;49;48.530;9.200;2023-01-23T14:04:31;34.37;;;19.60;;
417;SDS011;49;48.530;9.200;2023-01-23T14:07:26;42.97;;;24.83;;
417;SDS011;49;48.530;9.200;2023-01-23T14:10:18;30.70;;;18.67;;
417;SDS011;49;48.530;9.200;2023-01-23T14:12:47;33.77;;;19.37;;
417;SDS011;49;48.530;9.200;2023-01-23T14:15:18;31.00;;;17.47;;
417;SDS011;49;48.530;9.200;2023-01-23T14:18:04;40.93;;;17.60;;
417;SDS011;49;48.530;9.200;2023-01-23T14:20:38;26.93;;;16.43;;
417;SDS011;49;48.530;9.200;2023-01-23T14:23:14;28.20;;;16.27;;
417;SDS011;49;48.530;9.200;2023-01-23T14:25:52;31.27;;;18.20;;
417;SDS011;49;48.530;9.200;2023-01-23T14:28:20;28.73;;;16.73;;
417;SDS011;49;48.530;9.200;2023-01-23T14:30:54;30.93;;;16.87;;
417;SDS011;49;48.530;9.200;2023-01-23T14:33:24;37.30;;;16.73;;
417;SDS011;49;48.530;9.200;2023-01-23T14:35:52;30.83;;;17.67;;
417;SDS011;49;48.530;9.200;2023-01-23T14:38:29;31.17;;;16.60;;
417;SDS011;49;48.530;9.200;2023-01-23T14:41:01;29.17;;;15.30;;
417;SDS011;49;48.530;9.200;2023-01-23T14:43:30;33.17;;;15.97;;
417;SDS011;49;48.530;9.200;2023-01-23T14:46:00;32.47;;;15.57;;
417;SDS011;49;48.530;9.200;2023-01-23T14:48:30;29.43;;;16.17;;
417;SDS011;49;48.530;9.200;2023-01-23T14:51:07;26.63;;;15.67;;
417;SDS011;49;48.530;9.200;2023-01-23T14:53:42;25.57;;;15.53;;
417;SDS011;49;48.530;9.200;2023-01-23T14:56:15;28.30;;;16.67;;
417;SDS011;49;48.530;9.200;2023-01-23T14:58:42;28.50;;;16.80;;
417;SDS011;49;48.530;9.200;2023-01-23T15:01:11;26.27;;;16.00;;
417;SDS011;49;48.530;9.200;2023-01-23T15:03:39;32.70;;;15.87;;
417;SDS011;49;48.530;9.200;2023-01-23T15:06:12;23.30;;;13.63;;
417;SDS011;49;48.530;9.200;2023-01-23T15:08:42;32.10;;;16.40;;
417;SDS011;49;48.530;9.200;2023-01-23T15:11:09;27.33;;;16.30;;
417;SDS011;49;48.530;9.200;2023-01-23T15:13:41;28.13;;;15.80;;
417;SDS011;49;48.530;9.200;2023-01-23T15:16:16;29.70;;;16.20;;
417;SDS011;49;48.530;9.200;2023-01-23T15:18:54;28.03;;;16.43;;
417;SDS011;49;48.530;9.200;2023-01-23T15:21:27;27.27;;;14.83;;
417;SDS011;49;48.530;9.200;2023-01-23T15:24:15;27.90;;;15.30;;
417;SDS011;49;48.530;9.200;2023-01-23T15:26:49;26.50;;;15.97;;
417;SDS011;49;48.530;9.200;2023-01-23T15:29:23;25.87;;;15.50;;
417;SDS011;49;48.530;9.200;2023-01-23T15:31:51;24.40;;;14.23;;
417;SDS011;49;48.530;9.200;2023-01-23T15:34:23;27.73;;;15.13;;
417;SDS011;49;48.530;9.200;2023-01-23T15:36:54;28.67;;;15.67;;
417;SDS011;49;48.530;9.200;2023-01-23T15:39:25;25.87;;;15.53;;
417;SDS011;49;48.530;9.200;2023-01-23T15:41:55;25.00;;;15.23;;
417;SDS011;49;48.530;9.200;2023-01-23T15:44:25;29.70;;;16.80;;
417;SDS011;49;48.530;9.200;2023-01-23T15:46:56;24.17;;;15.60;;
417;SDS011;49;48.530;9.200;2023-01-23T15:49:25;26.77;;;16.10;;
417;SDS011;49;48.530;9.200;2023-01-23T15:51:59;27.73;;;15.43;;
417;SDS011;49;48.530;9.200;2023-01-23T15:54:30;25.83;;;17.07;;
417;SDS011;49;48.530;9.200;2023-01-23T15:56:58;27.53;;;16.57;;
417;SDS011;49;48.530;9.200;2023-01-23T15:59:26;41.20;;;22.57;;
417;SDS011;49;48.530;9.200;2023-01-23T16:01:53;47.40;;;20.60;;
417;SDS011;49;48.530;9.200;2023-01-23T16:04:20;42.00;;;23.43;;